Terminal Aerodrome Forecast
Issued by NWS Pendleton, OR

Home | Current Version | Previous Version | Text Only | Print | Product List | Glossary On
Versions: 1 2 3 4 5 6 7 8 9 10 11 12
000
FTUS46 KPDT 161700
TAFPDT
TAF
KPDT 161733Z 1618/1718 31009KT P6SM FEW200
     FM162100 31008KT P6SM SKC
     FM170300 15005KT P6SM FEW150
     FM170600 13004KT P6SM SCT150 BKN250
     FM170900 13006KT P6SM FEW120 OVC150=

USA.gov is the U.S. government's official web portal to all federal, state and local government web resources and services.